createdAt,value
2017-10-15T00:01:08.322Z,12.20
2017-10-15T00:03:35.387Z,12.93
2017-10-15T00:06:03.523Z,15.40
2017-10-15T00:08:29.865Z,15.83
2017-10-15T00:10:56.183Z,17.40
2017-10-15T00:13:25.265Z,17.60
2017-10-15T00:15:51.956Z,19.30
2017-10-15T00:18:20.002Z,15.83
2017-10-15T00:20:48.709Z,19.10
2017-10-15T00:23:15.402Z,15.17
2017-10-15T00:25:42.460Z,16.20
2017-10-15T00:28:08.899Z,14.90
2017-10-15T00:30:36.691Z,12.90
2017-10-15T00:33:03.038Z,13.10
2017-10-15T00:35:30.872Z,13.03
2017-10-15T00:37:57.218Z,11.63
2017-10-15T00:40:23.638Z,11.20
2017-10-15T00:42:51.462Z,11.13
2017-10-15T00:45:17.799Z,11.73
2017-10-15T00:47:45.622Z,10.63
2017-10-15T00:50:12.770Z,11.97
2017-10-15T00:52:40.215Z,11.40
2017-10-15T00:55:06.563Z,14.67
2017-10-15T00:57:32.967Z,16.53
2017-10-15T00:59:59.694Z,17.73
2017-10-15T01:02:27.199Z,12.77
2017-10-15T01:04:53.984Z,12.37
2017-10-15T01:07:20.342Z,12.13
2017-10-15T01:09:48.162Z,13.17
2017-10-15T01:12:14.711Z,12.80
2017-10-15T01:14:41.123Z,15.93
2017-10-15T01:17:07.446Z,15.30
2017-10-15T01:19:34.955Z,16.90
2017-10-15T01:22:01.310Z,14.10
2017-10-15T01:24:27.659Z,17.97
2017-10-15T01:26:54.091Z,15.90
2017-10-15T01:29:21.563Z,18.37
2017-10-15T01:31:47.931Z,17.47
2017-10-15T01:34:14.445Z,18.63
2017-10-15T01:36:42.524Z,14.73
2017-10-15T01:39:09.639Z,15.07
2017-10-15T01:41:36.806Z,13.60
2017-10-15T01:44:04.878Z,12.93
2017-10-15T01:46:31.973Z,13.60
2017-10-15T01:48:58.381Z,11.63
2017-10-15T01:51:24.742Z,13.10
2017-10-15T01:53:52.227Z,15.00
2017-10-15T01:56:18.706Z,13.00
2017-10-15T01:58:45.059Z,16.50
2017-10-15T02:01:11.423Z,15.17
2017-10-15T02:03:38.922Z,14.00
2017-10-15T02:06:06.995Z,16.37
2017-10-15T02:08:34.099Z,15.90
2017-10-15T02:11:01.966Z,16.70
2017-10-15T02:13:29.443Z,15.67
2017-10-15T02:15:55.918Z,14.80
2017-10-15T02:18:22.378Z,15.90
2017-10-15T02:20:49.467Z,15.10
2017-10-15T02:23:16.571Z,15.90
2017-10-15T02:25:43.687Z,14.87
2017-10-15T02:28:11.022Z,16.33
2017-10-15T02:30:38.070Z,17.20
2017-10-15T02:33:04.439Z,17.10
2017-10-15T02:35:30.775Z,14.73
2017-10-15T02:37:58.192Z,17.33
2017-10-15T02:40:24.566Z,17.70
2017-10-15T02:42:50.887Z,21.63
2017-10-15T02:45:17.228Z,22.53
2017-10-15T02:47:43.610Z,20.43
2017-10-15T02:50:09.935Z,22.33
2017-10-15T02:52:37.390Z,28.13
2017-10-15T02:55:03.779Z,28.80
2017-10-15T02:57:30.119Z,30.50
2017-10-15T02:59:57.906Z,31.33
2017-10-15T03:02:24.281Z,33.50
2017-10-15T03:04:51.332Z,37.10
2017-10-15T03:07:18.772Z,42.53
2017-10-15T03:09:45.891Z,43.47
2017-10-15T03:12:12.946Z,39.37
2017-10-15T03:14:40.017Z,40.50
2017-10-15T03:17:06.471Z,28.43
2017-10-15T03:19:32.807Z,33.23
2017-10-15T03:21:59.120Z,31.30
2017-10-15T03:24:26.275Z,29.57
2017-10-15T03:26:52.594Z,28.20
2017-10-15T03:29:18.919Z,24.17
2017-10-15T03:31:45.268Z,17.40
2017-10-15T03:34:11.603Z,16.83
2017-10-15T03:36:39.402Z,15.10
2017-10-15T03:39:07.503Z,18.40
2017-10-15T03:41:35.542Z,19.03
2017-10-15T03:44:02.232Z,14.20
2017-10-15T03:46:29.323Z,15.03
2017-10-15T03:48:55.622Z,14.20
2017-10-15T03:51:22.696Z,13.60
2017-10-15T03:53:49.800Z,16.50
2017-10-15T03:56:17.842Z,16.20
2017-10-15T03:58:45.905Z,17.53
2017-10-15T04:01:12.283Z,20.80
2017-10-15T04:03:40.106Z,19.93
2017-10-15T04:06:06.414Z,20.70
2017-10-15T04:08:32.830Z,22.60
2017-10-15T04:10:59.139Z,21.67
2017-10-15T04:13:26.952Z,21.13
2017-10-15T04:15:53.444Z,18.70
2017-10-15T04:18:19.892Z,17.30
2017-10-15T04:20:47.359Z,22.93
2017-10-15T04:23:13.762Z,17.00
2017-10-15T04:25:40.097Z,18.83
2017-10-15T04:28:06.424Z,16.17
2017-10-15T04:30:33.712Z,13.63
2017-10-15T04:33:00.774Z,14.10
2017-10-15T04:35:28.810Z,14.17
2017-10-15T04:37:55.639Z,12.43
2017-10-15T04:40:21.971Z,12.20
2017-10-15T04:42:49.771Z,12.60
2017-10-15T04:45:16.122Z,13.43
2017-10-15T04:47:43.174Z,13.23
2017-10-15T04:50:10.222Z,12.80
2017-10-15T04:52:36.671Z,11.83
2017-10-15T04:55:03.133Z,13.30
2017-10-15T04:57:29.460Z,12.37
2017-10-15T04:59:55.818Z,13.10
2017-10-15T05:02:23.277Z,11.30
2017-10-15T05:04:51.326Z,13.37
2017-10-15T05:07:17.757Z,16.90
2017-10-15T05:09:44.080Z,15.67
2017-10-15T05:12:11.143Z,18.73
2017-10-15T05:14:37.503Z,15.53
2017-10-15T05:17:03.826Z,14.07
2017-10-15T05:19:30.264Z,17.87
2017-10-15T05:21:57.736Z,19.10
2017-10-15T05:24:24.055Z,18.10
2017-10-15T05:26:52.106Z,15.27
2017-10-15T05:29:18.476Z,20.40
2017-10-15T05:31:44.804Z,20.87
2017-10-15T05:34:11.132Z,22.23
2017-10-15T05:36:37.554Z,20.70
2017-10-15T05:39:04.633Z,20.50
2017-10-15T05:41:30.956Z,19.03
2017-10-15T05:43:57.339Z,22.20
2017-10-15T05:46:23.659Z,21.20
2017-10-15T05:48:49.992Z,17.30
2017-10-15T05:51:17.126Z,15.37
2017-10-15T05:53:44.223Z,16.90
2017-10-15T05:56:12.283Z,15.93
2017-10-15T05:58:39.394Z,17.80
2017-10-15T06:01:07.438Z,20.97
2017-10-15T06:03:33.803Z,20.80
2017-10-15T06:06:00.303Z,21.70
2017-10-15T06:08:27.746Z,29.87
2017-10-15T06:10:54.114Z,31.07
2017-10-15T06:13:20.508Z,25.47
2017-10-15T06:15:48.321Z,23.43
2017-10-15T06:18:14.685Z,24.30
2017-10-15T06:20:41.163Z,23.37
2017-10-15T06:23:07.506Z,25.63
2017-10-15T06:25:35.577Z,28.30
2017-10-15T06:28:02.706Z,27.87
2017-10-15T06:30:29.431Z,25.83
2017-10-15T06:32:55.763Z,26.03
2017-10-15T06:35:22.147Z,28.00
2017-10-15T06:37:49.203Z,23.10
2017-10-15T06:40:21.610Z,24.07
2017-10-15T06:42:49.423Z,19.80
2017-10-15T06:45:15.743Z,15.30
2017-10-15T06:47:42.111Z,16.27
2017-10-15T06:50:09.539Z,17.33
2017-10-15T06:52:35.892Z,14.80
2017-10-15T06:55:02.303Z,17.10
2017-10-15T06:57:30.135Z,17.07
2017-10-15T06:59:56.460Z,19.50
2017-10-15T07:02:24.630Z,15.70
2017-10-15T07:04:50.974Z,16.07
2017-10-15T07:07:17.287Z,13.53
2017-10-15T07:09:43.674Z,15.20
2017-10-15T07:12:10.738Z,17.60
2017-10-15T07:14:37.815Z,23.57
2017-10-15T07:17:04.978Z,20.80
2017-10-15T07:19:31.310Z,18.40
2017-10-15T07:21:59.206Z,12.63
2017-10-15T07:24:25.583Z,12.13
2017-10-15T07:26:53.388Z,11.30
2017-10-15T07:29:19.702Z,12.77
2017-10-15T07:31:46.979Z,14.43
2017-10-15T07:34:13.662Z,16.30
2017-10-15T07:36:39.994Z,18.70
2017-10-15T07:39:06.390Z,16.27
2017-10-15T07:41:32.734Z,14.53
2017-10-15T07:44:00.552Z,16.33
2017-10-15T07:46:27.130Z,13.10
2017-10-15T07:48:54.941Z,13.77
2017-10-15T07:51:21.280Z,15.67
2017-10-15T07:53:47.637Z,17.90
2017-10-15T07:56:14.790Z,13.47
2017-10-15T07:58:41.847Z,13.90
2017-10-15T08:01:08.974Z,15.70
2017-10-15T08:03:36.786Z,14.80
2017-10-15T08:06:03.110Z,16.63
2017-10-15T08:08:29.874Z,17.90
2017-10-15T08:10:57.309Z,13.97
2017-10-15T08:13:23.626Z,14.67
2017-10-15T08:15:50.732Z,12.13
2017-10-15T08:18:17.813Z,10.90
2017-10-15T08:20:45.746Z,11.33
2017-10-15T08:23:12.494Z,12.10
2017-10-15T08:25:38.806Z,11.20
2017-10-15T08:28:05.119Z,11.57
2017-10-15T08:30:32.979Z,10.83
2017-10-15T08:32:59.303Z,29.33
2017-10-15T08:35:27.094Z,23.23
2017-10-15T08:37:54.630Z,21.27
2017-10-15T08:40:21.745Z,19.20
2017-10-15T08:42:48.790Z,17.63
2017-10-15T08:45:16.661Z,16.33
2017-10-15T08:47:44.790Z,17.40
2017-10-15T08:50:11.857Z,25.40
2017-10-15T08:52:38.994Z,22.97
2017-10-15T08:55:05.466Z,13.67
2017-10-15T08:57:31.812Z,12.00
2017-10-15T08:59:58.198Z,10.63
2017-10-15T09:02:24.670Z,10.50
2017-10-15T09:04:52.253Z,12.50
2017-10-15T09:07:20.146Z,11.87
2017-10-15T09:09:46.854Z,11.77
2017-10-15T09:12:14.783Z,11.23
2017-10-15T09:14:41.426Z,9.63
2017-10-15T09:17:08.268Z,11.60
2017-10-15T09:19:35.349Z,10.00
2017-10-15T09:22:02.457Z,11.27
2017-10-15T09:24:28.786Z,9.93
2017-10-15T09:26:55.102Z,13.30
2017-10-15T09:29:21.470Z,13.30
2017-10-15T09:31:48.891Z,12.47
2017-10-15T09:34:15.215Z,12.30
2017-10-15T09:37:32.610Z,9.20
2017-10-15T09:40:00.889Z,10.30
2017-10-15T09:42:29.178Z,10.90
2017-10-15T09:44:57.510Z,10.57
2017-10-15T09:47:25.787Z,8.70
2017-10-15T09:49:54.874Z,9.40
2017-10-15T09:52:23.958Z,9.00
2017-10-15T09:54:52.226Z,8.17
2017-10-15T09:57:20.987Z,8.40
2017-10-15T09:59:50.218Z,8.07
2017-10-15T10:02:18.878Z,7.10
2017-10-15T10:04:47.923Z,8.43
2017-10-15T10:07:16.251Z,8.43
2017-10-15T10:09:44.531Z,10.00
2017-10-15T10:12:13.954Z,10.50
2017-10-15T10:14:42.303Z,10.53
2017-10-15T10:17:10.984Z,14.13
2017-10-15T10:19:39.267Z,12.30
2017-10-15T10:22:08.754Z,10.50
2017-10-15T10:24:37.043Z,10.57
2017-10-15T10:27:06.671Z,10.10
2017-10-15T10:29:35.290Z,9.73
2017-10-15T10:32:04.923Z,10.70
2017-10-15T10:34:33.847Z,9.07
2017-10-15T10:37:03.307Z,9.20
2017-10-15T10:39:33.086Z,9.20
2017-10-15T10:42:02.722Z,8.37
2017-10-15T10:44:32.276Z,8.63
2017-10-15T10:47:01.562Z,5.93
2017-10-15T10:49:29.850Z,9.80
2017-10-15T10:51:58.890Z,12.70
2017-10-15T10:54:28.537Z,11.77
2017-10-15T10:56:56.698Z,7.70
2017-10-15T10:59:25.314Z,9.23
2017-10-15T11:01:54.346Z,7.53
2017-10-15T11:04:23.977Z,8.43
2017-10-15T11:06:52.904Z,11.70
2017-10-15T11:09:21.197Z,8.00
2017-10-15T11:11:49.478Z,6.63
2017-10-15T11:14:17.796Z,9.50
2017-10-15T11:16:47.578Z,10.30
2017-10-15T11:19:15.863Z,11.07
2017-10-15T11:21:45.321Z,16.67
2017-10-15T11:24:14.370Z,10.87
2017-10-15T11:26:43.422Z,6.90
2017-10-15T11:29:11.767Z,9.07
2017-10-15T11:31:41.410Z,12.33
2017-10-15T11:34:09.998Z,8.70
2017-10-15T11:36:38.314Z,9.17
2017-10-15T11:39:06.590Z,8.03
2017-10-15T11:41:36.002Z,7.77
2017-10-15T11:44:04.443Z,6.33
2017-10-15T11:46:32.719Z,6.40
2017-10-15T11:49:02.507Z,6.10
2017-10-15T11:51:30.835Z,8.40
2017-10-15T11:53:59.295Z,10.37
2017-10-15T11:56:27.586Z,7.50
2017-10-15T11:58:56.222Z,9.03
2017-10-15T12:01:27.206Z,6.13
2017-10-15T12:03:56.155Z,7.67
2017-10-15T12:06:25.785Z,6.60
2017-10-15T12:08:55.454Z,7.03
2017-10-15T12:11:24.107Z,4.70
2017-10-15T12:13:53.731Z,6.70
2017-10-15T12:16:21.914Z,7.60
2017-10-15T12:18:50.232Z,7.97
2017-10-15T12:21:18.514Z,8.70
2017-10-15T12:23:46.805Z,12.70
2017-10-15T12:26:16.277Z,11.40
2017-10-15T12:28:45.328Z,13.60
2017-10-15T12:31:14.749Z,8.33
2017-10-15T12:33:43.073Z,11.20
2017-10-15T12:36:11.356Z,4.80
2017-10-15T12:38:41.138Z,4.80
2017-10-15T12:41:09.852Z,6.90
2017-10-15T12:43:38.882Z,3.80
2017-10-15T12:46:07.919Z,5.60
2017-10-15T12:48:36.226Z,4.30
2017-10-15T12:51:05.266Z,4.90
2017-10-15T12:53:33.530Z,4.30
2017-10-15T12:56:03.398Z,5.03
2017-10-15T12:58:31.674Z,4.57
2017-10-15T13:01:01.452Z,4.57
2017-10-15T13:03:29.754Z,6.80
2017-10-15T13:05:58.032Z,6.30
2017-10-15T13:08:26.302Z,6.70
2017-10-15T13:10:54.629Z,6.03
2017-10-15T13:13:22.903Z,5.70
2017-10-15T13:15:51.171Z,5.93
2017-10-15T13:18:19.522Z,7.80
2017-10-15T13:20:49.149Z,7.60
2017-10-15T13:23:17.307Z,8.77
2017-10-15T13:25:46.791Z,7.43
2017-10-15T13:28:15.831Z,6.00
2017-10-15T13:30:44.871Z,6.13
2017-10-15T13:33:13.206Z,6.70
2017-10-15T13:35:41.487Z,5.00
2017-10-15T13:38:09.756Z,6.03
2017-10-15T13:40:38.641Z,7.90
2017-10-15T13:43:07.794Z,5.90
2017-10-15T13:45:36.122Z,5.53
2017-10-15T13:48:04.426Z,5.27
2017-10-15T13:50:32.705Z,5.60
2017-10-15T13:53:01.022Z,4.77
2017-10-15T13:55:30.654Z,5.07
2017-10-15T13:57:58.815Z,6.07
2017-10-15T14:00:29.521Z,5.70
2017-10-15T14:02:59.178Z,5.13
2017-10-15T14:05:27.455Z,5.30
2017-10-15T14:07:56.844Z,6.00
2017-10-15T14:10:25.881Z,5.80
2017-10-15T14:12:54.919Z,5.27
2017-10-15T14:15:23.244Z,4.70
2017-10-15T14:17:51.559Z,4.70
2017-10-15T14:20:19.836Z,5.37
2017-10-15T14:22:49.430Z,4.30
2017-10-15T14:25:18.471Z,6.30
2017-10-15T14:27:47.516Z,5.67
2017-10-15T14:30:15.818Z,5.20
2017-10-15T14:32:44.121Z,5.30
2017-10-15T14:35:12.431Z,5.00
2017-10-15T14:37:42.130Z,6.60
2017-10-15T14:40:10.673Z,5.03
2017-10-15T14:42:38.943Z,5.90
2017-10-15T14:45:07.272Z,5.50
2017-10-15T14:47:36.896Z,6.20
2017-10-15T14:50:05.455Z,7.47
2017-10-15T14:52:33.772Z,8.10
2017-10-15T14:55:02.815Z,7.47
2017-10-15T14:57:31.096Z,6.73
2017-10-15T14:59:59.416Z,6.13
2017-10-15T15:02:27.700Z,7.10
2017-10-15T15:04:55.971Z,6.83
2017-10-15T15:07:25.466Z,10.37
2017-10-15T15:09:53.751Z,8.80
2017-10-15T15:12:22.048Z,72.27
2017-10-15T15:14:50.379Z,22.27
2017-10-15T15:17:18.697Z,14.00
2017-10-15T15:19:48.322Z,12.77
2017-10-15T15:22:16.551Z,16.57
2017-10-15T15:24:44.826Z,16.23
2017-10-15T15:27:13.116Z,7.80
2017-10-15T15:29:41.452Z,6.70
2017-10-15T15:32:10.491Z,6.83
2017-10-15T15:34:40.126Z,8.83
2017-10-15T15:37:08.716Z,8.10
2017-10-15T15:39:36.994Z,8.10
2017-10-15T15:42:06.416Z,9.13
2017-10-15T15:44:35.142Z,8.67
2017-10-15T15:47:04.941Z,8.83
2017-10-15T15:49:33.226Z,8.00
2017-10-15T15:52:01.562Z,7.67
2017-10-15T15:54:29.851Z,16.70
2017-10-15T15:56:58.151Z,26.87
2017-10-15T15:59:26.482Z,18.23
2017-10-15T16:01:56.270Z,12.57
2017-10-15T16:04:24.562Z,11.33
2017-10-15T16:06:52.933Z,11.53
2017-10-15T16:09:21.975Z,11.33
2017-10-15T16:11:51.402Z,10.77
2017-10-15T16:14:20.874Z,11.70
2017-10-15T16:16:50.298Z,11.27
2017-10-15T16:19:18.586Z,12.50
2017-10-15T16:21:46.943Z,16.20
2017-10-15T16:24:16.746Z,20.37
2017-10-15T16:26:45.034Z,17.20
2017-10-15T16:29:13.370Z,15.37
2017-10-15T16:31:43.162Z,13.30
2017-10-15T16:34:11.459Z,17.80
2017-10-15T16:36:39.825Z,14.90
2017-10-15T16:39:09.621Z,14.07
2017-10-15T16:41:38.670Z,12.50
2017-10-15T16:44:08.147Z,10.47
2017-10-15T16:46:36.438Z,8.97
2017-10-15T16:49:06.074Z,9.27
2017-10-15T16:51:34.678Z,9.07
2017-10-15T16:54:04.094Z,11.40
2017-10-15T16:56:32.414Z,10.67
2017-10-15T16:59:01.502Z,10.17
2017-10-15T17:01:30.561Z,11.23
2017-10-15T17:04:00.198Z,11.17
2017-10-15T17:06:28.812Z,10.53
2017-10-15T17:08:57.868Z,10.17
2017-10-15T17:11:26.939Z,10.80
2017-10-15T17:13:55.270Z,10.50
2017-10-15T17:16:23.559Z,10.40
2017-10-15T17:18:51.854Z,12.00
2017-10-15T17:21:21.747Z,10.57
2017-10-15T17:23:50.035Z,10.60
2017-10-15T17:26:18.322Z,11.63
2017-10-15T17:28:46.666Z,13.07
2017-10-15T17:31:16.466Z,12.20
2017-10-15T17:33:44.755Z,14.50
2017-10-15T17:36:13.087Z,17.43
2017-10-15T17:38:42.134Z,17.27
2017-10-15T17:41:10.419Z,14.70
2017-10-15T17:43:38.762Z,15.47
2017-10-15T17:46:08.569Z,13.60
2017-10-15T17:48:36.855Z,14.60
2017-10-15T17:51:05.202Z,14.57
2017-10-15T17:53:34.631Z,21.07
2017-10-15T17:56:03.686Z,13.20
2017-10-15T17:58:32.014Z,12.40
2017-10-15T18:01:01.066Z,13.50
2017-10-15T18:03:29.758Z,14.93
2017-10-15T18:05:58.107Z,13.10
2017-10-15T18:08:26.404Z,11.50
2017-10-15T18:10:54.697Z,11.10
2017-10-15T18:13:23.043Z,10.67
2017-10-15T18:15:51.733Z,11.00
2017-10-15T18:18:20.023Z,11.50
2017-10-15T18:20:49.099Z,9.90
2017-10-15T18:23:18.146Z,11.17
2017-10-15T18:25:47.797Z,11.83
2017-10-15T18:28:16.014Z,11.20
2017-10-15T18:30:44.303Z,22.87
2017-10-15T18:33:12.597Z,19.47
2017-10-15T18:35:41.707Z,20.87
2017-10-15T18:38:10.763Z,24.53
2017-10-15T18:40:39.047Z,25.23
2017-10-15T18:43:07.374Z,14.80
2017-10-15T18:45:35.663Z,15.67
2017-10-15T18:48:03.950Z,16.83
2017-10-15T18:50:33.035Z,17.27
2017-10-15T18:53:02.827Z,15.60
2017-10-15T18:55:32.255Z,15.70
2017-10-15T18:58:00.595Z,14.60
2017-10-15T19:00:28.883Z,13.83
2017-10-15T19:02:57.939Z,14.50
2017-10-15T19:05:26.283Z,13.60
2017-10-15T19:07:54.583Z,16.50
2017-10-15T19:10:24.006Z,17.80
2017-10-15T19:12:52.870Z,18.27
2017-10-15T19:15:21.162Z,17.33
2017-10-15T19:17:49.450Z,16.53
2017-10-15T19:20:17.799Z,15.60
2017-10-15T19:22:46.091Z,14.67
2017-10-15T19:25:15.883Z,15.60
2017-10-15T19:27:44.216Z,14.93
2017-10-15T19:30:13.638Z,16.10
2017-10-15T19:32:41.930Z,16.20
2017-10-15T19:35:10.267Z,15.10
2017-10-15T19:37:38.567Z,16.10
2017-10-15T19:40:06.855Z,18.70
2017-10-15T19:42:35.970Z,18.30
2017-10-15T19:45:05.611Z,19.67
2017-10-15T19:47:33.790Z,20.87
2017-10-15T19:50:02.125Z,16.97
2017-10-15T19:52:30.423Z,15.87
2017-10-15T19:54:58.762Z,15.17
2017-10-15T19:57:27.123Z,15.43
2017-10-15T19:59:55.438Z,14.40
2017-10-15T20:02:23.726Z,14.60
2017-10-15T20:04:53.575Z,15.30
2017-10-15T20:07:22.578Z,15.50
2017-10-15T20:09:51.267Z,21.73
2017-10-15T20:12:19.594Z,27.70
2017-10-15T20:14:48.287Z,25.70
2017-10-15T20:17:18.075Z,19.53
2017-10-15T20:19:47.547Z,38.93
2017-10-15T20:22:16.594Z,30.43
2017-10-15T20:24:45.649Z,22.80
2017-10-15T20:27:15.045Z,37.13
2017-10-15T20:29:43.735Z,32.40
2017-10-15T20:32:12.033Z,19.50
2017-10-15T20:34:40.359Z,17.87
2017-10-15T20:37:08.646Z,25.37
2017-10-15T20:39:36.935Z,24.00
2017-10-15T20:42:06.775Z,20.33
2017-10-15T20:44:35.067Z,16.80
2017-10-15T20:47:03.715Z,16.80
2017-10-15T20:49:32.822Z,17.00
2017-10-15T20:52:01.102Z,17.40
2017-10-15T20:54:29.387Z,15.80
2017-10-15T20:56:57.730Z,15.63
2017-10-15T20:59:26.016Z,16.30
2017-10-15T21:01:54.302Z,16.57
2017-10-15T21:04:22.636Z,16.17
2017-10-15T21:06:51.687Z,15.90
2017-10-15T21:09:19.970Z,22.33
2017-10-15T21:11:48.302Z,22.97
2017-10-15T21:14:17.722Z,21.37
2017-10-15T21:16:46.002Z,20.17
2017-10-15T21:19:14.328Z,18.20
2017-10-15T21:21:42.605Z,18.90
2017-10-15T21:24:10.890Z,22.80
2017-10-15T21:26:39.222Z,18.77
2017-10-15T21:29:07.504Z,17.30
2017-10-15T21:31:36.926Z,20.13
2017-10-15T21:34:05.294Z,21.03
2017-10-15T21:36:34.927Z,22.07
2017-10-15T21:39:03.486Z,23.27
2017-10-15T21:41:31.813Z,20.60
2017-10-15T21:44:00.099Z,23.27
2017-10-15T21:46:28.387Z,19.70
2017-10-15T21:48:57.502Z,19.80
2017-10-15T21:51:25.787Z,25.80
2017-10-15T21:53:54.088Z,20.40
2017-10-15T21:56:23.958Z,20.93
2017-10-15T21:58:53.758Z,29.03
2017-10-15T22:01:22.044Z,22.20
2017-10-15T22:03:50.359Z,20.90
2017-10-15T22:06:18.649Z,27.37
2017-10-15T22:08:48.445Z,26.30
2017-10-15T22:11:16.786Z,24.40
2017-10-15T22:13:45.840Z,27.50
2017-10-15T22:16:14.894Z,22.23
2017-10-15T22:18:50.308Z,21.20
2017-10-15T22:21:25.306Z,21.43
2017-10-15T22:23:54.022Z,22.77
2017-10-15T22:26:23.095Z,20.20
2017-10-15T22:28:51.380Z,19.93
2017-10-15T22:31:20.466Z,19.93
2017-10-15T22:33:49.363Z,34.40
2017-10-15T22:36:17.654Z,31.77
2017-10-15T22:38:46.094Z,23.60
2017-10-15T22:41:14.375Z,22.13
2017-10-15T22:43:42.663Z,22.80
2017-10-15T22:46:12.122Z,21.60
2017-10-15T22:48:40.410Z,22.87
2017-10-15T22:51:08.691Z,22.60
2017-10-15T22:53:37.035Z,22.83
2017-10-15T22:56:05.343Z,21.93
2017-10-15T22:58:33.626Z,21.20
2017-10-15T23:01:03.322Z,23.10
2017-10-15T23:03:32.619Z,20.70
2017-10-15T23:06:00.906Z,18.80
2017-10-15T23:08:30.734Z,17.60
2017-10-15T23:10:59.019Z,19.40
2017-10-15T23:13:27.306Z,21.40
2017-10-15T23:15:55.634Z,19.80
2017-10-15T23:18:23.923Z,17.60
2017-10-15T23:20:52.214Z,27.50
2017-10-15T23:23:21.691Z,22.60
2017-10-15T23:25:49.983Z,16.20
2017-10-15T23:28:18.269Z,18.37
2017-10-15T23:30:46.883Z,18.00
2017-10-15T23:33:15.171Z,22.87
2017-10-15T23:35:44.598Z,24.50
2017-10-15T23:38:12.982Z,16.73
2017-10-15T23:40:41.260Z,17.40
2017-10-15T23:43:11.047Z,21.30
2017-10-15T23:45:39.358Z,25.50
2017-10-15T23:48:07.650Z,26.57
2017-10-15T23:50:35.938Z,26.77
2017-10-15T23:53:05.031Z,24.50
2017-10-15T23:55:34.681Z,24.13
2017-10-15T23:58:03.234Z,27.23
